Usk, Washington
Current Conditions -  °F | °C
As of 8:53 PM on Friday 28 Nov 2014 (Local Time) from KDEW Reporting Station
Light Rain Light Rain  
Wind Chill: 38°   Ceiling: 1700
Heat Index: 46°   Visibility: 10mi
Dew Point: 43°   Wind: 22mph
Humidity: 89%   Direction: 220°SW
Pressure: 29.23"   Gusts: 29mph
Location:  48.31°N, 117.28°W
Report Text: KDEW 290453Z AUTO 22019G25KT 10SM -RA BKN017 BKN022 OVC043 08/06 A2923 RMK AO2 PK WND 21033/0354 RAB21 SLP900 P0001 T00780061
Loading
Personal Weather Stations






























Interactive Weather Map New forecast layout! Learn more

10-Day Weather Forecast

Advertisements
Track Severe Weather on mobile